Time;durP1;ratioP1;P1;durP2;ratioP2;P2;SDS_P1;SDS_P2;PMS_P1;PMS_P2;Temp;Humidity;BMP_temperature;BMP_pressure;BME280_temperature;BME280_humidity;BME280_pressure;Samples;Min_cycle;Max_cycle;Signal;HPM_P1;HPM_P2
2023/01/24 00:00:07;;;;;;;8.02;3.58;;;;;;;6.22;87.25;103324.47;4991584;28;20026;-69
2023/01/24 00:02:32;;;;;;;7.25;4.18;;;;;;;6.14;87.50;103324.94;4991588;28;20505;-69
2023/01/24 00:04:58;;;;;;;7.10;3.25;;;;;;;6.21;87.40;103322.88;4990613;28;20038;-69
2023/01/24 00:07:23;;;;;;;9.30;3.67;;;;;;;6.28;87.10;103326.09;4992450;28;20042;-68
2023/01/24 00:09:49;;;;;;;8.23;3.90;;;;;;;6.29;87.07;103320.50;4973329;28;20022;-68
2023/01/24 00:12:14;;;;;;;8.77;3.45;;;;;;;6.27;86.93;103327.97;4989702;28;20027;-69
2023/01/24 00:14:39;;;;;;;11.93;4.10;;;;;;;6.24;86.61;103325.00;4992482;28;20041;-68
2023/01/24 00:17:07;;;;;;;9.52;3.78;;;;;;;6.27;87.57;103319.94;4992223;28;20034;-68
2023/01/24 00:19:33;;;;;;;11.00;4.72;;;;;;;6.26;87.27;103310.31;4990892;28;20034;-68
2023/01/24 00:21:59;;;;;;;10.15;3.92;;;;;;;6.27;87.16;103313.81;4987826;28;20034;-69
2023/01/24 00:24:26;;;;;;;8.70;4.35;;;;;;;6.26;87.09;103320.22;4975904;28;20032;-68
2023/01/24 00:26:51;;;;;;;10.05;3.47;;;;;;;6.27;87.06;103321.84;4991980;28;20062;-69
2023/01/24 00:29:16;;;;;;;7.07;4.32;;;;;;;6.27;86.79;103317.25;4988877;28;20131;-69
2023/01/24 00:31:42;;;;;;;8.30;4.20;;;;;;;6.26;87.03;103304.16;4988485;28;20487;-69
2023/01/24 00:34:07;;;;;;;8.07;3.75;;;;;;;6.18;87.37;103310.00;4991076;28;20037;-69
2023/01/24 00:36:36;;;;;;;9.27;4.18;;;;;;;6.20;87.29;103315.88;4990264;28;20058;-69
2023/01/24 00:39:01;;;;;;;15.23;4.68;;;;;;;6.24;86.69;103314.31;4971979;28;20077;-68
2023/01/24 00:41:27;;;;;;;8.95;4.22;;;;;;;6.25;86.97;103297.22;4986343;28;20025;-69
2023/01/24 00:43:53;;;;;;;9.02;4.03;;;;;;;6.14;86.58;103303.53;4990929;28;20037;-68
2023/01/24 00:46:18;;;;;;;8.10;4.03;;;;;;;6.21;87.04;103296.91;4990764;28;20486;-69
2023/01/24 00:48:47;;;;;;;9.88;4.85;;;;;;;6.22;86.95;103298.53;4990606;28;20026;-69
2023/01/24 00:51:12;;;;;;;10.07;3.65;;;;;;;6.23;87.26;103299.34;4989578;28;20046;-69
2023/01/24 00:53:38;;;;;;;7.53;3.22;;;;;;;6.18;87.65;103293.94;4969572;28;20044;-68
2023/01/24 00:56:04;;;;;;;6.68;3.95;;;;;;;6.21;87.48;103296.91;4979575;28;20548;-69
2023/01/24 00:58:31;;;;;;;9.52;4.15;;;;;;;6.20;86.75;103295.31;4988670;28;20557;-69
2023/01/24 01:01:00;;;;;;;9.35;3.83;;;;;;;6.12;87.31;103287.75;4989070;28;20040;-69
2023/01/24 01:03:25;;;;;;;8.73;3.35;;;;;;;6.16;87.17;103288.03;4984078;28;20044;-68
2023/01/24 01:06:14;;;;;;;10.52;3.15;;;;;;;6.16;87.53;103285.38;4986229;28;20542;-69
2023/01/24 01:08:39;;;;;;;7.63;3.58;;;;;;;6.19;87.26;103284.88;4956319;28;20667;-69
2023/01/24 01:11:05;;;;;;;8.80;3.70;;;;;;;6.21;87.46;103290.75;4988140;28;20030;-68
2023/01/24 01:13:31;;;;;;;13.45;4.60;;;;;;;6.23;86.68;103283.28;4982950;28;20038;-69
2023/01/24 01:16:18;;;;;;;12.60;3.85;;;;;;;6.23;86.76;103277.94;4989786;28;20034;-69
2023/01/24 01:18:45;;;;;;;6.95;3.42;;;;;;;6.23;87.25;103283.28;4973434;28;20061;-68
2023/01/24 01:21:14;;;;;;;9.30;4.43;;;;;;;6.15;86.77;103278.44;4985878;28;20030;-69
2023/01/24 01:23:40;;;;;;;6.97;3.40;;;;;;;6.18;87.04;103276.03;4983477;28;20054;-69
2023/01/24 01:26:07;;;;;;;8.13;3.47;;;;;;;6.17;86.87;103279.78;4989748;28;20080;-69
2023/01/24 01:28:33;;;;;;;10.13;4.18;;;;;;;6.10;87.49;103273.03;4990875;28;20491;-69
2023/01/24 01:30:59;;;;;;;5.82;3.22;;;;;;;6.08;87.31;103275.16;4989658;28;20053;-69
2023/01/24 01:33:24;;;;;;;11.40;4.47;;;;;;;6.11;87.86;103283.50;4987640;28;20294;-69
2023/01/24 01:35:50;;;;;;;10.43;4.75;;;;;;;6.14;86.99;103284.81;4973320;28;20120;-69
2023/01/24 01:38:16;;;;;;;8.50;3.88;;;;;;;6.14;87.46;103274.13;4970510;28;20045;-69
2023/01/24 01:40:43;;;;;;;6.15;3.85;;;;;;;6.19;87.02;103276.84;4973133;28;20030;-68
2023/01/24 01:43:17;;;;;;;6.80;3.28;;;;;;;6.17;87.37;103274.44;4998115;28;20105;-68
2023/01/24 01:45:44;;;;;;;8.77;3.78;;;;;;;6.07;87.40;103278.91;4989354;28;20026;-68
2023/01/24 01:48:18;;;;;;;9.60;3.85;;;;;;;6.07;87.77;103276.22;4987804;28;20058;-68
2023/01/24 01:50:53;;;;;;;10.73;3.63;;;;;;;6.17;87.31;103273.63;4978561;28;20422;-68
2023/01/24 01:53:21;;;;;;;7.65;3.78;;;;;;;6.13;87.21;103273.34;4984954;28;20077;-68
2023/01/24 01:55:53;;;;;;;9.20;4.75;;;;;;;6.13;87.12;103281.38;4988978;28;20070;-69
2023/01/24 01:58:19;;;;;;;7.10;3.95;;;;;;;6.15;87.02;103267.72;4983422;28;20499;-69
2023/01/24 02:00:49;;;;;;;9.27;3.72;;;;;;;6.11;87.19;103275.47;4989063;28;20513;-68
2023/01/24 02:06:04;;;;;;;5.82;3.50;;;;;;;6.11;87.39;103263.97;4987864;28;21062;-68
2023/01/24 02:08:30;;;;;;;7.93;3.63;;;;;;;6.14;86.94;103272.25;4986064;28;20026;-68
2023/01/24 02:11:39;;;;;;;8.88;4.10;;;;;;;6.14;87.06;103266.09;4976509;28;20038;-68
2023/01/24 02:13:46;;;;;;;9.35;3.85;;;;;;;6.10;86.80;103265.81;4985022;28;20057;-69
2023/01/24 02:16:15;;;;;;;8.63;3.30;;;;;;;6.08;87.71;103257.25;4994795;28;20485;-68
2023/01/24 02:18:44;;;;;;;4.28;2.20;;;;;;;6.11;87.01;103254.06;4994387;28;20097;-68
2023/01/24 02:21:15;;;;;;;10.15;3.40;;;;;;;6.12;87.62;103266.38;4992935;28;20026;-69
2023/01/24 02:23:43;;;;;;;8.93;3.72;;;;;;;6.13;86.71;103257.28;4986710;28;20104;-68
2023/01/24 02:26:30;;;;;;;7.15;3.85;;;;;;;6.08;87.11;103270.63;4987439;28;20521;-69
2023/01/24 02:29:01;;;;;;;8.55;3.58;;;;;;;6.09;87.44;103268.75;4987978;28;20170;-68
2023/01/24 02:31:27;;;;;;;6.65;3.38;;;;;;;6.09;87.49;103269.56;4973312;28;20545;-69
2023/01/24 02:33:52;;;;;;;8.07;3.50;;;;;;;6.14;86.98;103271.44;4976227;28;20066;-68
2023/01/24 02:36:30;;;;;;;16.85;4.47;;;;;;;6.11;86.46;103264.78;4989533;28;20049;-68
2023/01/24 02:39:01;;;;;;;6.40;3.55;;;;;;;6.13;86.48;103262.63;4975955;28;20491;-69
2023/01/24 02:41:37;;;;;;;7.40;3.45;;;;;;;6.06;87.17;103271.94;4993322;28;20486;-68
2023/01/24 02:44:08;;;;;;;8.95;3.72;;;;;;;6.06;86.88;103270.06;4992570;28;20037;-68
2023/01/24 02:46:37;;;;;;;4.10;2.40;;;;;;;6.06;86.41;103267.41;4992913;28;20514;-68
2023/01/24 02:49:07;;;;;;;9.73;3.75;;;;;;;6.09;86.55;103274.09;4994029;28;20080;-68
2023/01/24 02:54:17;;;;;;;8.13;3.60;;;;;;;6.06;86.78;103277.28;4992074;28;20098;-68
2023/01/24 02:59:26;;;;;;;5.05;3.28;;;;;;;6.09;86.52;103276.78;4991496;28;20042;-68
2023/01/24 03:01:52;;;;;;;7.85;3.70;;;;;;;6.08;86.41;103277.84;4991148;28;20076;-68
2023/01/24 03:04:18;;;;;;;12.75;5.05;;;;;;;6.09;87.01;103288.28;4991747;28;20030;-68
2023/01/24 03:06:44;;;;;;;6.72;3.50;;;;;;;6.07;86.61;103282.41;4985526;28;20042;-68
2023/01/24 03:09:18;;;;;;;6.30;4.03;;;;;;;6.04;87.21;103279.44;4990510;28;20561;-68
2023/01/24 03:11:46;;;;;;;9.82;4.22;;;;;;;6.06;87.00;103278.09;4991352;28;20406;-69
2023/01/24 03:36:19;;;;;;;5.80;3.05;;;;;;;6.01;86.47;103302.16;4988763;28;20042;-68
2023/01/24 03:41:32;;;;;;;7.10;3.92;;;;;;;5.98;86.71;103296.50;4992963;28;20503;-68
2023/01/24 03:43:58;;;;;;;6.88;3.58;;;;;;;5.96;87.26;103309.34;4986497;28;20053;-70
2023/01/24 03:46:24;;;;;;;4.57;3.13;;;;;;;5.93;86.77;103307.97;4988350;28;20038;-67
2023/01/24 03:48:50;;;;;;;8.65;3.38;;;;;;;5.96;87.23;103296.75;4990433;28;20061;-67
2023/01/24 03:54:03;;;;;;;5.72;2.97;;;;;;;5.98;87.20;103293.84;4990959;28;20027;-69
2023/01/24 03:56:36;;;;;;;5.75;3.17;;;;;;;6.02;86.78;103297.63;4991599;28;20113;-67
2023/01/24 03:59:05;;;;;;;6.10;3.50;;;;;;;6.01;86.84;103296.81;4975159;28;20026;-68
2023/01/24 04:01:34;;;;;;;9.77;3.83;;;;;;;6.01;86.81;103291.44;4983242;28;20018;-68
2023/01/24 04:04:12;;;;;;;6.15;3.53;;;;;;;6.02;86.58;103294.94;4986733;28;20022;-68
2023/01/24 04:06:38;;;;;;;5.97;3.28;;;;;;;6.02;86.49;103286.91;4991736;28;20544;-68
2023/01/24 04:09:06;;;;;;;8.93;3.72;;;;;;;5.99;86.99;103290.91;4990504;28;20041;-67
2023/01/24 04:11:32;;;;;;;11.30;4.32;;;;;;;5.98;86.71;103291.16;4974543;28;20438;-68
2023/01/24 04:14:08;;;;;;;8.00;3.30;;;;;;;6.05;87.03;103291.72;4989658;28;20038;-68
2023/01/24 04:16:38;;;;;;;6.93;3.92;;;;;;;6.07;86.65;103297.63;4991430;28;20030;-68
2023/01/24 04:19:19;;;;;;;;;;;;;;;6.08;86.33;103299.22;4991078;28;20117;-68
2023/01/24 04:21:45;;;;;;;5.03;2.33;;;;;;;6.05;87.33;103299.75;4987507;28;20132;-68
2023/01/24 04:24:11;;;;;;;12.30;5.00;;;;;;;6.05;87.17;103299.75;4988296;28;20896;-68
2023/01/24 04:26:40;;;;;;;9.23;3.40;;;;;;;6.01;86.44;103307.50;4975250;28;20030;-68
2023/01/24 04:29:09;;;;;;;6.20;3.22;;;;;;;5.95;86.65;103307.72;4973633;28;21488;-68
2023/01/24 04:31:34;;;;;;;4.85;2.40;;;;;;;5.89;86.32;103316.75;4974019;28;20121;-68
2023/01/24 04:34:19;;;;;;;4.18;2.70;;;;;;;5.92;87.10;103308.25;4984206;28;20103;-68
2023/01/24 04:36:44;;;;;;;4.65;2.60;;;;;;;5.96;86.32;103309.34;4975795;28;20045;-68
2023/01/24 04:39:10;;;;;;;7.65;3.08;;;;;;;5.97;85.80;103303.72;4979418;28;20030;-67
2023/01/24 04:41:56;;;;;;;4.97;3.17;;;;;;;5.99;86.27;103308.81;5023787;23;20049;-68
2023/01/24 04:44:21;;;;;;;5.38;3.20;;;;;;;6.04;86.21;103311.53;4995158;28;20042;-69
2023/01/24 04:46:47;;;;;;;8.88;3.65;;;;;;;6.03;85.32;103309.91;5011923;28;20025;-69
2023/01/24 04:49:12;;;;;;;10.93;4.25;;;;;;;6.06;85.64;103314.72;4994118;28;20494;-69
2023/01/24 04:51:42;;;;;;;7.97;3.42;;;;;;;6.07;85.55;103311.00;4989224;28;20030;-69
2023/01/24 04:54:12;;;;;;;9.10;3.20;;;;;;;6.04;85.68;103306.19;4986341;28;20022;-69
2023/01/24 04:56:38;;;;;;;13.68;4.47;;;;;;;6.04;85.58;103311.53;4970674;28;20045;-69
2023/01/24 04:59:05;;;;;;;8.10;3.38;;;;;;;6.02;85.26;103302.97;4990536;28;20026;-69
2023/01/24 05:01:32;;;;;;;5.65;3.90;;;;;;;6.01;85.65;103304.00;4974212;28;20657;-69
2023/01/24 05:04:04;;;;;;;9.32;3.90;;;;;;;6.01;85.59;103304.00;4989813;28;20392;-69
2023/01/24 05:06:31;;;;;;;5.75;2.70;;;;;;;6.02;84.47;103306.41;4989177;28;20086;-69
2023/01/24 05:08:58;;;;;;;9.30;3.42;;;;;;;5.92;85.08;103302.88;4972357;28;20486;-69
2023/01/24 05:11:30;;;;;;;8.75;3.03;;;;;;;5.93;84.52;103301.81;4973813;28;20113;-69
2023/01/24 05:13:59;;;;;;;9.95;3.17;;;;;;;5.95;85.08;103302.38;4990249;28;20034;-69
2023/01/24 05:16:25;;;;;;;6.10;3.28;;;;;;;5.96;84.47;103298.63;4996869;28;20042;-69
2023/01/24 05:18:50;;;;;;;9.15;3.80;;;;;;;5.95;84.36;103297.81;4990069;28;20033;-69
2023/01/24 05:21:18;;;;;;;6.53;3.22;;;;;;;5.94;84.53;103300.75;4989561;28;20026;-69
2023/01/24 05:23:52;;;;;;;7.43;3.55;;;;;;;5.90;85.13;103305.81;4986863;28;20034;-68
2023/01/24 05:26:21;;;;;;;6.32;2.60;;;;;;;5.94;84.35;103303.44;4987230;28;20027;-69
2023/01/24 05:28:48;;;;;;;11.90;3.70;;;;;;;5.93;84.40;103304.50;4989960;28;20041;-69
2023/01/24 05:31:14;;;;;;;4.07;2.58;;;;;;;5.88;84.80;103302.59;4989714;28;20034;-69
2023/01/24 05:33:40;;;;;;;6.90;3.45;;;;;;;5.93;84.94;103307.16;4967127;28;20026;-69
2023/01/24 05:36:15;;;;;;;7.90;3.45;;;;;;;5.99;84.72;103304.28;4973950;28;20041;-69
2023/01/24 05:38:42;;;;;;;10.00;3.67;;;;;;;5.91;84.82;103311.97;4971121;28;20030;-69
2023/01/24 05:41:10;;;;;;;6.00;3.22;;;;;;;5.93;85.31;103309.84;4971772;28;20030;-69
2023/01/24 05:43:37;;;;;;;7.88;3.08;;;;;;;5.97;85.09;103314.41;4989718;28;20505;-69
2023/01/24 05:46:09;;;;;;;4.82;2.33;;;;;;;5.99;85.07;103314.97;4989686;28;20065;-69
2023/01/24 05:48:42;;;;;;;5.90;2.78;;;;;;;5.93;84.54;103312.50;4958391;28;20030;-69
2023/01/24 05:51:10;;;;;;;6.82;2.92;;;;;;;5.99;84.16;103309.63;4986349;28;20076;-69
2023/01/24 05:53:38;;;;;;;4.25;2.70;;;;;;;5.97;84.28;103318.97;4989361;28;20031;-69
2023/01/24 05:56:13;;;;;;;4.45;2.38;;;;;;;5.92;83.78;103310.91;4993299;28;20062;-69
2023/01/24 05:58:40;;;;;;;3.50;1.92;;;;;;;5.80;84.16;103310.25;4989880;28;20030;-69
2023/01/24 06:01:17;;;;;;;3.60;1.75;;;;;;;5.86;83.90;103298.56;4984998;28;20171;-69
2023/01/24 06:03:46;;;;;;;5.40;1.77;;;;;;;5.91;82.99;103302.06;4983591;28;20027;-69
2023/01/24 06:06:13;;;;;;;2.28;1.85;;;;;;;5.92;82.58;103306.34;4990053;28;20124;-69
2023/01/24 06:08:39;;;;;;;4.35;2.33;;;;;;;5.95;81.53;103305.03;4973650;28;20026;-69
2023/01/24 06:11:10;;;;;;;6.45;2.72;;;;;;;5.98;81.49;103310.66;4988700;28;20030;-69
2023/01/24 06:13:36;;;;;;;4.60;2.53;;;;;;;5.94;80.67;103308.78;4987395;28;20499;-69
2023/01/24 06:16:23;;;;;;;6.00;2.40;;;;;;;5.96;80.44;103317.34;4973522;28;20034;-69
2023/01/24 06:18:51;;;;;;;4.55;2.35;;;;;;;5.97;80.79;103310.94;4971919;28;20034;-69
2023/01/24 06:21:24;;;;;;;5.25;2.28;;;;;;;5.91;80.86;103318.13;4987635;28;20069;-69
2023/01/24 06:23:54;;;;;;;3.17;1.80;;;;;;;5.94;81.05;103311.47;4971346;28;20038;-69
2023/01/24 06:26:21;;;;;;;4.05;2.53;;;;;;;5.90;80.19;103321.88;4988655;28;20026;-69
2023/01/24 06:28:47;;;;;;;2.63;1.92;;;;;;;5.92;80.20;103327.75;4989888;28;20023;-69
2023/01/24 06:31:24;;;;;;;2.35;1.77;;;;;;;5.90;79.72;103321.88;4980651;28;20414;-69
2023/01/24 06:34:17;;;;;;;4.43;1.98;;;;;;;5.92;79.67;103318.94;4987628;28;20399;-69
2023/01/24 06:37:14;;;;;;;2.25;1.77;;;;;;;5.88;79.81;103329.34;4982009;28;20023;-69
2023/01/24 06:39:52;;;;;;;2.58;1.60;;;;;;;5.88;79.90;103331.19;4987519;28;20030;-69
2023/01/24 06:42:18;;;;;;;4.60;2.40;;;;;;;5.82;79.28;103334.88;4988910;28;20022;-69
2023/01/24 06:44:44;;;;;;;3.22;2.15;;;;;;;5.87;79.73;103334.91;4987930;28;20038;-69
2023/01/24 06:47:10;;;;;;;4.75;2.60;;;;;;;5.76;79.74;103346.56;4989351;28;20034;-69
2023/01/24 06:49:36;;;;;;;4.05;2.08;;;;;;;5.75;80.14;103334.28;4984411;28;20030;-69
2023/01/24 06:52:03;;;;;;;3.13;2.15;;;;;;;5.83;79.86;103333.78;4987374;28;20076;-69
2023/01/24 06:54:29;;;;;;;5.63;2.20;;;;;;;5.83;79.47;103342.66;4989013;28;20048;-68
2023/01/24 06:56:54;;;;;;;3.97;2.42;;;;;;;5.83;80.03;103341.81;4986671;28;20121;-68
2023/01/24 06:59:22;;;;;;;3.65;1.88;;;;;;;5.79;80.45;103330.81;4983620;28;20042;-68
2023/01/24 07:01:48;;;;;;;2.60;1.88;;;;;;;5.79;79.64;103332.72;4991530;28;20038;-69
2023/01/24 07:04:14;;;;;;;1.52;1.23;;;;;;;5.81;79.49;103336.72;4990077;28;20113;-68
2023/01/24 07:06:39;;;;;;;3.50;1.98;;;;;;;5.82;79.50;103342.88;4957373;28;20483;-71
2023/01/24 07:09:05;;;;;;;2.30;1.67;;;;;;;5.82;78.91;103345.56;4987657;28;20104;-69
2023/01/24 07:11:31;;;;;;;4.13;1.55;;;;;;;5.86;79.08;103352.03;4985276;28;20036;-68
2023/01/24 07:13:56;;;;;;;2.47;1.70;;;;;;;5.84;78.73;103346.16;4952200;28;20634;-69
2023/01/24 07:16:21;;;;;;;2.35;1.67;;;;;;;5.86;78.96;103354.72;4974156;28;20064;-70
2023/01/24 07:18:47;;;;;;;7.20;2.80;;;;;;;5.91;78.18;103358.22;4991409;28;20081;-69
2023/01/24 07:21:13;;;;;;;3.25;2.17;;;;;;;5.81;78.01;103365.31;4991053;28;20069;-70
2023/01/24 07:23:43;;;;;;;3.80;2.20;;;;;;;5.78;77.85;103363.16;4986466;28;20062;-69
2023/01/24 07:26:11;;;;;;;2.63;1.90;;;;;;;5.84;77.85;103372.88;4990750;28;20104;-69
2023/01/24 07:28:37;;;;;;;5.45;3.10;;;;;;;5.88;77.88;103368.63;4990654;28;20265;-69
2023/01/24 07:31:06;;;;;;;4.53;2.70;;;;;;;5.88;77.62;103368.63;4991293;28;20125;-69
2023/01/24 07:33:32;;;;;;;4.25;1.90;;;;;;;5.90;77.55;103369.19;4991711;28;20118;-70
2023/01/24 07:35:57;;;;;;;9.00;2.60;;;;;;;5.64;77.88;103364.66;4986347;28;20113;-69
2023/01/24 07:38:23;;;;;;;3.70;2.15;;;;;;;5.72;77.54;103377.56;4989856;28;20089;-68
2023/01/24 07:40:48;;;;;;;4.53;1.85;;;;;;;5.79;77.78;103375.50;4992201;28;20057;-69
2023/01/24 07:43:14;;;;;;;3.83;2.42;;;;;;;5.87;77.47;103375.03;4978334;28;20109;-69
2023/01/24 07:45:40;;;;;;;5.47;2.90;;;;;;;5.86;77.14;103374.25;4991908;28;20030;-69
2023/01/24 07:48:06;;;;;;;2.65;1.90;;;;;;;5.88;77.70;103373.97;4997421;28;20030;-70
2023/01/24 07:50:32;;;;;;;6.85;2.92;;;;;;;5.88;77.63;103382.00;4978614;28;20507;-69
2023/01/24 07:52:58;;;;;;;3.20;2.35;;;;;;;5.92;77.68;103393.81;4989832;28;20478;-69
2023/01/24 07:55:24;;;;;;;4.25;2.33;;;;;;;5.92;77.46;103391.91;4990386;28;20046;-70
2023/01/24 07:57:50;;;;;;;3.38;1.95;;;;;;;5.73;78.19;103396.00;4995669;28;20030;-69
2023/01/24 08:00:16;;;;;;;5.30;2.42;;;;;;;5.69;78.38;103392.22;4993102;28;20053;-69
2023/01/24 08:02:43;;;;;;;3.88;1.92;;;;;;;5.64;78.77;103389.50;4976802;28;20058;-69
2023/01/24 08:05:09;;;;;;;3.50;2.25;;;;;;;5.64;78.43;103394.84;4994337;28;20045;-69
2023/01/24 08:07:34;;;;;;;3.15;2.13;;;;;;;5.72;78.16;103397.06;4988413;28;20628;-69
2023/01/24 08:10:00;;;;;;;6.40;2.55;;;;;;;5.76;78.59;103403.53;4996169;28;20380;-69
2023/01/24 08:12:25;;;;;;;3.40;2.40;;;;;;;5.81;77.86;103400.88;4993189;28;20022;-70
2023/01/24 08:14:51;;;;;;;3.85;2.67;;;;;;;5.78;78.40;103396.06;4973551;28;20030;-69
2023/01/24 08:17:17;;;;;;;5.32;2.10;;;;;;;5.73;77.99;103382.63;4991264;28;20128;-69
2023/01/24 08:19:42;;;;;;;4.47;2.28;;;;;;;5.74;77.82;103396.81;4987466;28;20041;-68
2023/01/24 08:22:08;;;;;;;4.20;2.00;;;;;;;5.69;77.97;103396.78;4989755;28;20361;-69
2023/01/24 08:24:33;;;;;;;6.40;2.63;;;;;;;5.68;77.88;103400.50;4991193;28;20030;-69
2023/01/24 08:27:00;;;;;;;3.67;2.30;;;;;;;5.70;77.62;103393.84;4991245;28;20382;-69
2023/01/24 08:29:26;;;;;;;3.20;1.63;;;;;;;5.62;77.75;103394.31;4990064;28;20042;-69
2023/01/24 08:31:52;;;;;;;4.05;2.35;;;;;;;5.69;77.67;103399.47;4989859;28;20033;-69
2023/01/24 08:34:20;;;;;;;3.05;2.30;;;;;;;5.74;76.71;103402.97;4981156;28;20034;-69
2023/01/24 08:36:46;;;;;;;3.67;2.00;;;;;;;5.80;76.75;103406.50;4973548;28;20505;-69
2023/01/24 08:39:11;;;;;;;3.50;2.08;;;;;;;5.72;76.32;103394.41;4988234;28;20058;-69
2023/01/24 08:41:37;;;;;;;4.10;2.17;;;;;;;5.69;76.45;103413.59;4991013;28;20061;-69
2023/01/24 08:44:04;;;;;;;2.45;1.80;;;;;;;5.77;77.14;103412.38;4987602;28;20057;-69
2023/01/24 08:46:30;;;;;;;5.38;2.42;;;;;;;5.84;76.51;103400.44;4984741;28;20030;-68
2023/01/24 08:48:56;;;;;;;4.72;2.75;;;;;;;5.86;76.25;103397.50;4987023;28;20502;-69
2023/01/24 08:51:21;;;;;;;5.20;2.10;;;;;;;5.96;75.63;103400.25;4987475;28;20030;-68
2023/01/24 08:53:47;;;;;;;7.38;2.00;;;;;;;5.84;75.63;103408.44;4984566;28;20042;-69
2023/01/24 08:56:13;;;;;;;8.07;2.85;;;;;;;5.70;76.35;103407.22;4990546;28;20034;-69
2023/01/24 08:58:38;;;;;;;3.72;2.03;;;;;;;5.78;76.21;103405.94;4989371;28;20642;-69
2023/01/24 09:01:10;;;;;;;4.10;2.50;;;;;;;5.69;75.71;103404.81;4986232;28;20056;-69
2023/01/24 09:03:37;;;;;;;4.18;2.08;;;;;;;5.74;76.10;103408.31;4987288;28;20805;-69
2023/01/24 09:06:06;;;;;;;3.67;1.50;;;;;;;5.69;76.11;103413.59;4989452;28;20109;-69
2023/01/24 09:08:32;;;;;;;4.28;2.50;;;;;;;5.74;76.04;103405.66;4986738;28;20038;-69
2023/01/24 09:10:58;;;;;;;2.58;1.67;;;;;;;5.82;76.23;103415.06;4981190;28;20122;-68
2023/01/24 09:13:24;;;;;;;2.75;1.73;;;;;;;5.84;76.43;103411.13;4981881;28;20113;-68
2023/01/24 09:15:50;;;;;;;4.35;2.63;;;;;;;5.89;75.73;103403.13;4987517;28;20030;-69
2023/01/24 09:18:16;;;;;;;2.38;1.48;;;;;;;5.95;75.83;103406.66;4986427;28;20038;-69
2023/01/24 09:20:42;;;;;;;4.15;2.25;;;;;;;5.95;76.00;103420.03;4986658;28;20030;-68
2023/01/24 09:23:09;;;;;;;3.08;2.20;;;;;;;5.93;76.06;103416.78;4970938;28;20134;-68
2023/01/24 09:25:34;;;;;;;3.53;1.85;;;;;;;5.76;76.56;103410.72;4989760;28;20561;-68
2023/01/24 09:28:00;;;;;;;4.55;2.13;;;;;;;5.59;77.20;103420.72;4988092;28;20118;-69
2023/01/24 09:30:45;;;;;;;6.97;2.92;;;;;;;5.74;76.94;103418.19;4956453;28;20506;-69
2023/01/24 09:33:11;;;;;;;2.92;1.77;;;;;;;5.60;76.98;103422.34;4921830;29;20052;-69
2023/01/24 09:35:36;;;;;;;2.95;1.88;;;;;;;5.65;76.32;103414.38;4919642;29;20114;-69
2023/01/24 09:38:03;;;;;;;4.25;2.75;;;;;;;5.59;76.98;103418.06;4914054;29;20134;-69
2023/01/24 09:40:43;;;;;;;3.55;2.28;;;;;;;5.76;75.77;103422.25;4909702;29;20532;-69
2023/01/24 09:43:14;;;;;;;4.18;2.15;;;;;;;5.81;76.06;103419.59;4924819;29;20470;-68
2023/01/24 09:45:45;;;;;;;;;;;;;;;5.96;75.01;103421.66;4923573;29;20039;-69
2023/01/24 09:48:15;;;;;;;5.80;2.38;;;;;;;5.90;74.83;103422.66;4925307;29;19919;-69
2023/01/24 09:50:47;;;;;;;6.75;2.20;;;;;;;5.91;74.71;103427.75;4915725;29;20108;-70
2023/01/24 09:53:24;;;;;;;;;;;;;;;5.75;74.38;103417.94;4917903;29;20044;-69
2023/01/24 09:55:51;;;;;;;2.50;1.95;;;;;;;5.89;74.87;103423.72;4921061;29;20474;-69
2023/01/24 09:58:43;;;;;;;5.15;2.50;;;;;;;5.92;74.23;103424.00;4926580;29;20047;-69
2023/01/24 10:01:13;;;;;;;;;;;;;;;5.90;75.33;103428.81;4924137;29;20066;-69
2023/01/24 10:03:39;;;;;;;5.13;2.17;;;;;;;5.87;75.39;103420.47;4922331;29;20461;-69
2023/01/24 10:06:29;;;;;;;3.88;2.33;;;;;;;5.80;75.70;103422.53;4918843;29;20199;-69
2023/01/24 10:09:09;;;;;;;3.50;2.17;;;;;;;5.86;75.81;103417.03;4922495;29;20696;-69
2023/01/24 10:12:03;;;;;;;3.55;2.10;;;;;;;5.46;75.77;103420.06;4986636;28;20050;-69
2023/01/24 10:14:46;;;;;;;4.05;2.17;;;;;;;5.53;76.88;103412.66;4971206;28;20042;-69
2023/01/24 10:17:11;;;;;;;2.47;1.98;;;;;;;5.61;76.29;103416.75;4980724;28;20472;-68
2023/01/24 10:19:43;;;;;;;4.55;2.70;;;;;;;5.59;76.11;103412.72;4986233;28;20041;-68
2023/01/24 10:22:11;;;;;;;5.13;2.38;;;;;;;5.63;76.11;103420.00;4986042;28;20031;-69
2023/01/24 10:24:41;;;;;;;7.90;2.40;;;;;;;5.69;75.95;103407.47;4987932;28;20031;-69
2023/01/24 10:27:37;;;;;;;5.47;3.05;;;;;;;5.76;76.54;103408.06;4987467;28;20132;-70
2023/01/24 10:30:17;;;;;;;4.95;1.90;;;;;;;5.79;75.42;103399.56;4974266;28;20034;-69
2023/01/24 10:32:44;;;;;;;4.82;2.55;;;;;;;5.81;75.66;103402.75;4972205;28;20030;-69
2023/01/24 10:35:19;;;;;;;3.50;1.92;;;;;;;5.83;75.56;103392.59;4989591;28;20060;-69
2023/01/24 10:37:55;;;;;;;5.05;2.60;;;;;;;5.91;75.16;103394.84;4986563;28;20548;-69
2023/01/24 10:40:22;;;;;;;4.07;2.55;;;;;;;5.79;74.61;103386.19;4978584;28;20026;-69
2023/01/24 10:42:47;;;;;;;3.08;2.58;;;;;;;5.89;75.11;103394.28;5005861;22;20020;-68
2023/01/24 10:45:47;;;;;;;5.32;3.08;;;;;;;5.79;74.41;103395.00;4994604;28;20046;-67
2023/01/24 10:48:42;;;;;;;3.65;2.15;;;;;;;5.81;74.02;103387.53;4991162;28;20077;-67
2023/01/24 10:51:26;;;;;;;3.03;1.88;;;;;;;5.70;74.19;103382.34;5007866;28;20034;-68
2023/01/24 10:54:00;;;;;;;3.88;2.47;;;;;;;5.56;74.86;103381.13;5008961;28;20072;-67
2023/01/24 10:56:25;;;;;;;4.18;2.00;;;;;;;5.60;74.84;103380.38;5010177;28;20045;-68
2023/01/24 10:59:06;;;;;;;4.18;2.28;;;;;;;5.66;75.51;103376.69;5012277;28;20022;-68
2023/01/24 11:01:38;;;;;;;3.63;2.47;;;;;;;5.74;75.13;103370.91;4994229;28;20034;-68
2023/01/24 11:04:20;;;;;;;4.35;2.22;;;;;;;5.78;74.71;103369.34;5012637;28;20037;-68
2023/01/24 11:06:47;;;;;;;3.08;2.03;;;;;;;5.71;75.35;103373.28;5012606;28;20030;-68
2023/01/24 11:09:21;;;;;;;3.75;2.35;;;;;;;5.79;75.03;103370.16;5010716;28;20402;-69
2023/01/24 11:12:04;;;;;;;4.25;2.30;;;;;;;5.90;75.04;103369.19;5011587;28;20490;-68
2023/01/24 11:14:34;;;;;;;3.85;2.25;;;;;;;5.98;75.45;103374.06;5013103;28;20045;-68
2023/01/24 11:17:01;;;;;;;4.05;2.42;;;;;;;6.02;74.80;103369.81;4994754;28;20172;-68
2023/01/24 11:19:35;;;;;;;5.85;3.30;;;;;;;5.99;75.46;103373.00;5012335;28;20029;-67
2023/01/24 11:22:18;;;;;;;4.93;2.45;;;;;;;6.02;75.24;103356.44;5012066;28;20116;-67
2023/01/24 11:24:45;;;;;;;3.92;2.75;;;;;;;6.02;75.48;103377.84;5012725;28;20045;-67
2023/01/24 11:27:15;;;;;;;3.40;2.75;;;;;;;6.14;74.87;103365.88;4994195;28;20572;-67
2023/01/24 11:29:41;;;;;;;6.35;2.65;;;;;;;5.99;74.67;103367.63;5012428;28;20033;-68
2023/01/24 11:32:24;;;;;;;3.50;2.50;;;;;;;5.95;75.21;103358.50;5011416;28;20382;-67
2023/01/24 11:35:11;;;;;;;3.92;2.42;;;;;;;5.96;76.07;103366.28;5002002;28;20339;-68
2023/01/24 11:37:58;;;;;;;4.50;2.80;;;;;;;5.99;75.44;103357.75;5003427;28;20389;-67
2023/01/24 11:40:47;;;;;;;3.45;2.33;;;;;;;6.04;74.93;103359.66;5004488;28;20466;-67
2023/01/24 11:43:37;;;;;;;4.53;2.63;;;;;;;5.86;75.73;103352.03;4981259;28;20069;-67
2023/01/24 11:46:09;;;;;;;4.25;2.60;;;;;;;5.89;75.39;103360.34;4982434;28;20113;-67
2023/01/24 11:48:43;;;;;;;4.10;2.13;;;;;;;5.97;75.90;103349.19;5012264;28;20034;-67
2023/01/24 11:51:20;;;;;;;2.50;2.28;;;;;;;6.02;75.18;103341.19;5010907;28;20049;-67
2023/01/24 11:53:45;;;;;;;4.13;2.25;;;;;;;6.02;75.25;103343.06;4993278;28;20093;-67
2023/01/24 11:56:21;;;;;;;2.55;2.00;;;;;;;6.08;75.19;103350.84;5010521;28;20072;-67
2023/01/24 11:59:24;;;;;;;5.50;2.80;;;;;;;6.08;75.59;103345.50;5011175;28;20037;-67
2023/01/24 12:02:05;;;;;;;4.05;2.22;;;;;;;6.09;74.98;103341.78;4992235;28;20435;-67
2023/01/24 12:05:04;;;;;;;3.35;1.90;;;;;;;5.76;75.79;103355.41;4993173;28;20508;-67
2023/01/24 12:07:36;;;;;;;5.32;2.88;;;;;;;5.76;76.38;103347.41;5007763;28;20088;-67
2023/01/24 12:10:26;;;;;;;4.40;2.45;;;;;;;5.72;76.68;103351.63;4989753;28;20034;-68
2023/01/24 12:12:55;;;;;;;4.70;2.22;;;;;;;5.64;76.88;103352.09;4995160;28;20034;-67
2023/01/24 12:15:36;;;;;;;5.97;2.80;;;;;;;5.78;76.86;103339.91;5002162;28;20102;-67
2023/01/24 12:18:06;;;;;;;7.45;2.70;;;;;;;5.82;76.24;103334.88;5008318;28;20041;-68
2023/01/24 12:20:48;;;;;;;3.40;2.45;;;;;;;5.75;76.31;103340.41;5005294;28;20030;-67
2023/01/24 12:23:24;;;;;;;3.72;2.10;;;;;;;5.87;76.75;103342.94;4990085;28;20034;-67